sensor_id;sensor_type;location;lat;lon;timestamp;pressure;altitude;pressure_sealevel;temperature;humidity
80837;BME280;70251;60.008;30.404;2023-09-18T00:00:51;101439.56;;;12.00;63.51
80837;BME280;70251;60.008;30.404;2023-09-18T00:03:18;101445.88;;;11.99;63.82
80837;BME280;70251;60.008;30.404;2023-09-18T00:05:46;101439.78;;;11.97;63.51
80837;BME280;70251;60.008;30.404;2023-09-18T00:08:13;101442.59;;;11.96;63.67
80837;BME280;70251;60.008;30.404;2023-09-18T00:10:40;101444.56;;;11.94;63.46
80837;BME280;70251;60.008;30.404;2023-09-18T00:13:06;101451.72;;;11.93;63.56
80837;BME280;70251;60.008;30.404;2023-09-18T00:15:32;101454.53;;;11.92;63.65
80837;BME280;70251;60.008;30.404;2023-09-18T00:17:57;101462.78;;;11.89;63.67
80837;BME280;70251;60.008;30.404;2023-09-18T00:20:23;101458.66;;;11.85;63.78
80837;BME280;70251;60.008;30.404;2023-09-18T00:22:54;101457.09;;;11.82;64.01
80837;BME280;70251;60.008;30.404;2023-09-18T00:25:20;101467.53;;;11.85;63.86
80837;BME280;70251;60.008;30.404;2023-09-18T00:27:46;101469.13;;;11.88;64.01
80837;BME280;70251;60.008;30.404;2023-09-18T00:30:12;101461.97;;;11.88;63.93
80837;BME280;70251;60.008;30.404;2023-09-18T00:32:37;101462.34;;;11.84;64.05
80837;BME280;70251;60.008;30.404;2023-09-18T00:35:03;101462.19;;;11.85;63.92
80837;BME280;70251;60.008;30.404;2023-09-18T00:37:29;101481.13;;;11.93;63.52
80837;BME280;70251;60.008;30.404;2023-09-18T00:39:55;101476.88;;;11.91;63.62
80837;BME280;70251;60.008;30.404;2023-09-18T00:42:21;101478.72;;;11.90;63.77
80837;BME280;70251;60.008;30.404;2023-09-18T00:44:48;101479.69;;;11.89;63.86
80837;BME280;70251;60.008;30.404;2023-09-18T00:47:14;101474.97;;;11.82;63.97
80837;BME280;70251;60.008;30.404;2023-09-18T00:49:41;101483.22;;;11.90;63.70
80837;BME280;70251;60.008;30.404;2023-09-18T00:52:10;101473.47;;;11.89;63.54
80837;BME280;70251;60.008;30.404;2023-09-18T00:54:37;101492.69;;;11.94;63.50
80837;BME280;70251;60.008;30.404;2023-09-18T00:57:05;101484.91;;;11.91;63.62
80837;BME280;70251;60.008;30.404;2023-09-18T00:59:31;101481.50;;;11.89;63.55
80837;BME280;70251;60.008;30.404;2023-09-18T01:01:59;101484.69;;;11.83;63.92
80837;BME280;70251;60.008;30.404;2023-09-18T01:04:26;101477.66;;;11.82;63.81
80837;BME280;70251;60.008;30.404;2023-09-18T01:06:54;101486.41;;;11.84;63.67
80837;BME280;70251;60.008;30.404;2023-09-18T01:09:22;101484.81;;;11.81;63.93
80837;BME280;70251;60.008;30.404;2023-09-18T01:12:55;101485.03;;;11.78;64.22
80837;BME280;70251;60.008;30.404;2023-09-18T01:14:59;101490.41;;;11.78;64.46
80837;BME280;70251;60.008;30.404;2023-09-18T01:17:34;101500.72;;;11.72;64.09
80837;BME280;70251;60.008;30.404;2023-09-18T01:20:00;101492.97;;;11.68;64.13
80837;BME280;70251;60.008;30.404;2023-09-18T01:22:30;101490.16;;;11.70;64.51
80837;BME280;70251;60.008;30.404;2023-09-18T01:24:55;101482.38;;;11.67;64.01
80837;BME280;70251;60.008;30.404;2023-09-18T01:27:21;101488.81;;;11.64;64.26
80837;BME280;70251;60.008;30.404;2023-09-18T01:29:47;101499.50;;;11.64;64.82
80837;BME280;70251;60.008;30.404;2023-09-18T01:32:13;101503.41;;;11.60;64.46
80837;BME280;70251;60.008;30.404;2023-09-18T01:34:45;101506.66;;;11.53;64.85
80837;BME280;70251;60.008;30.404;2023-09-18T01:37:12;101511.28;;;11.51;64.58
80837;BME280;70251;60.008;30.404;2023-09-18T01:39:39;101515.03;;;11.48;65.09
80837;BME280;70251;60.008;30.404;2023-09-18T01:42:06;101518.69;;;11.47;65.05
80837;BME280;70251;60.008;30.404;2023-09-18T01:44:33;101519.78;;;11.45;65.08
80837;BME280;70251;60.008;30.404;2023-09-18T01:47:01;101517.34;;;11.42;65.34
80837;BME280;70251;60.008;30.404;2023-09-18T01:49:28;101518.31;;;11.41;65.13
80837;BME280;70251;60.008;30.404;2023-09-18T01:51:54;101519.41;;;11.38;65.20
80837;BME280;70251;60.008;30.404;2023-09-18T01:54:19;101523.53;;;11.31;65.37
80837;BME280;70251;60.008;30.404;2023-09-18T01:56:45;101527.19;;;11.30;65.66
80837;BME280;70251;60.008;30.404;2023-09-18T01:59:10;101521.31;;;11.25;65.98
80837;BME280;70251;60.008;30.404;2023-09-18T02:01:36;101522.53;;;11.21;65.70
80837;BME280;70251;60.008;30.404;2023-09-18T02:04:04;101521.47;;;11.24;65.69
80837;BME280;70251;60.008;30.404;2023-09-18T02:06:30;101529.34;;;11.25;65.53
80837;BME280;70251;60.008;30.404;2023-09-18T02:08:55;101526.81;;;11.24;65.79
80837;BME280;70251;60.008;30.404;2023-09-18T02:11:21;101523.78;;;11.28;65.77
80837;BME280;70251;60.008;30.404;2023-09-18T02:13:47;101529.13;;;11.28;65.58
80837;BME280;70251;60.008;30.404;2023-09-18T02:16:13;101543.31;;;11.29;65.58
80837;BME280;70251;60.008;30.404;2023-09-18T02:18:39;101544.03;;;11.20;66.04
80837;BME280;70251;60.008;30.404;2023-09-18T02:21:05;101547.78;;;11.17;65.65
80837;BME280;70251;60.008;30.404;2023-09-18T02:23:32;101554.09;;;11.16;66.53
80837;BME280;70251;60.008;30.404;2023-09-18T02:26:18;101551.41;;;11.16;66.08
80837;BME280;70251;60.008;30.404;2023-09-18T02:28:44;101554.44;;;11.12;66.08
80837;BME280;70251;60.008;30.404;2023-09-18T02:31:10;101545.09;;;11.06;66.38
80837;BME280;70251;60.008;30.404;2023-09-18T02:33:37;101549.94;;;11.12;66.10
80837;BME280;70251;60.008;30.404;2023-09-18T02:36:02;101558.22;;;11.09;66.22
80837;BME280;70251;60.008;30.404;2023-09-18T02:38:28;101560.88;;;11.09;66.45
80837;BME280;70251;60.008;30.404;2023-09-18T02:40:55;101553.09;;;11.06;66.60
80837;BME280;70251;60.008;30.404;2023-09-18T02:43:22;101560.59;;;11.01;66.41
80837;BME280;70251;60.008;30.404;2023-09-18T02:45:49;101556.75;;;11.05;66.46
80837;BME280;70251;60.008;30.404;2023-09-18T02:48:15;101560.25;;;11.06;66.73
80837;BME280;70251;60.008;30.404;2023-09-18T02:50:41;101555.97;;;11.03;66.85
80837;BME280;70251;60.008;30.404;2023-09-18T02:53:09;101553.31;;;11.03;67.01
80837;BME280;70251;60.008;30.404;2023-09-18T02:55:36;101551.13;;;10.97;67.21
80837;BME280;70251;60.008;30.404;2023-09-18T02:58:02;101557.31;;;10.98;66.89
80837;BME280;70251;60.008;30.404;2023-09-18T03:00:28;101552.84;;;10.98;66.57
80837;BME280;70251;60.008;30.404;2023-09-18T03:02:54;101551.13;;;10.97;66.91
80837;BME280;70251;60.008;30.404;2023-09-18T03:05:19;101564.47;;;10.97;66.95
80837;BME280;70251;60.008;30.404;2023-09-18T03:07:45;101563.84;;;10.93;67.29
80837;BME280;70251;60.008;30.404;2023-09-18T03:10:10;101565.19;;;10.88;67.51
80837;BME280;70251;60.008;30.404;2023-09-18T03:12:41;101568.47;;;10.91;67.56
80837;BME280;70251;60.008;30.404;2023-09-18T03:15:07;101574.53;;;10.93;67.30
80837;BME280;70251;60.008;30.404;2023-09-18T03:17:32;101565.91;;;10.90;67.40
80837;BME280;70251;60.008;30.404;2023-09-18T03:19:58;101575.00;;;10.87;67.67
80837;BME280;70251;60.008;30.404;2023-09-18T03:22:24;101571.59;;;10.85;67.76
80837;BME280;70251;60.008;30.404;2023-09-18T03:24:49;101578.75;;;10.85;67.43
80837;BME280;70251;60.008;30.404;2023-09-18T03:27:15;101562.59;;;10.86;67.39
80837;BME280;70251;60.008;30.404;2023-09-18T03:29:40;101567.59;;;10.91;67.45
80837;BME280;70251;60.008;30.404;2023-09-18T03:32:06;101555.97;;;10.92;67.49
80837;BME280;70251;60.008;30.404;2023-09-18T03:34:32;101564.59;;;10.96;66.82
80837;BME280;70251;60.008;30.404;2023-09-18T03:36:58;101561.78;;;10.97;67.60
80837;BME280;70251;60.008;30.404;2023-09-18T03:39:23;101558.03;;;11.00;67.46
80837;BME280;70251;60.008;30.404;2023-09-18T03:41:49;101562.88;;;10.94;67.24
80837;BME280;70251;60.008;30.404;2023-09-18T03:44:17;101559.84;;;10.88;67.86
80837;BME280;70251;60.008;30.404;2023-09-18T03:46:43;101561.00;;;10.84;67.71
80837;BME280;70251;60.008;30.404;2023-09-18T03:49:08;101561.78;;;10.86;67.83
80837;BME280;70251;60.008;30.404;2023-09-18T03:51:34;101561.41;;;10.90;67.57
80837;BME280;70251;60.008;30.404;2023-09-18T03:54:00;101551.25;;;10.96;67.41
80837;BME280;70251;60.008;30.404;2023-09-18T03:56:26;101555.97;;;11.03;67.23
80837;BME280;70251;60.008;30.404;2023-09-18T03:58:53;101570.31;;;11.02;67.39
80837;BME280;70251;60.008;30.404;2023-09-18T04:01:23;101588.50;;;10.97;67.50
80837;BME280;70251;60.008;30.404;2023-09-18T04:03:48;101578.41;;;10.89;67.64
80837;BME280;70251;60.008;30.404;2023-09-18T04:06:14;101581.28;;;10.86;67.77
80837;BME280;70251;60.008;30.404;2023-09-18T04:08:40;101573.28;;;10.86;67.81
80837;BME280;70251;60.008;30.404;2023-09-18T04:11:06;101581.94;;;10.90;68.30
80837;BME280;70251;60.008;30.404;2023-09-18T04:13:34;101579.34;;;10.88;67.81
80837;BME280;70251;60.008;30.404;2023-09-18T04:16:00;101593.44;;;10.90;67.91
80837;BME280;70251;60.008;30.404;2023-09-18T04:18:27;101582.28;;;10.85;67.78
80837;BME280;70251;60.008;30.404;2023-09-18T04:20:52;101592.50;;;10.91;67.73
80837;BME280;70251;60.008;30.404;2023-09-18T04:23:23;101589.22;;;10.88;68.65
80837;BME280;70251;60.008;30.404;2023-09-18T04:25:51;101593.91;;;10.84;68.22
80837;BME280;70251;60.008;30.404;2023-09-18T04:28:19;101593.03;;;10.84;68.22
80837;BME280;70251;60.008;30.404;2023-09-18T04:30:45;101595.72;;;10.84;68.90
80837;BME280;70251;60.008;30.404;2023-09-18T04:33:11;101589.44;;;10.85;68.20
80837;BME280;70251;60.008;30.404;2023-09-18T04:35:38;101590.03;;;10.88;68.20
80837;BME280;70251;60.008;30.404;2023-09-18T04:38:06;101579.34;;;10.88;68.57
80837;BME280;70251;60.008;30.404;2023-09-18T04:40:32;101595.16;;;10.91;68.43
80837;BME280;70251;60.008;30.404;2023-09-18T04:42:58;101573.56;;;10.94;68.15
80837;BME280;70251;60.008;30.404;2023-09-18T04:45:24;101589.88;;;11.03;68.09
80837;BME280;70251;60.008;30.404;2023-09-18T04:47:51;101601.88;;;11.08;68.10
80837;BME280;70251;60.008;30.404;2023-09-18T04:50:17;101590.00;;;11.12;67.68
80837;BME280;70251;60.008;30.404;2023-09-18T04:52:42;101575.69;;;11.13;67.61
80837;BME280;70251;60.008;30.404;2023-09-18T04:55:09;101584.69;;;11.23;67.57
80837;BME280;70251;60.008;30.404;2023-09-18T04:57:35;101598.56;;;11.28;68.02
80837;BME280;70251;60.008;30.404;2023-09-18T05:00:02;101591.38;;;11.29;67.81
80837;BME280;70251;60.008;30.404;2023-09-18T05:02:30;101589.56;;;11.29;67.71
80837;BME280;70251;60.008;30.404;2023-09-18T05:04:56;101597.63;;;11.40;67.42
80837;BME280;70251;60.008;30.404;2023-09-18T05:07:21;101602.84;;;11.42;67.49
80837;BME280;70251;60.008;30.404;2023-09-18T05:09:48;101595.06;;;11.39;67.46
80837;BME280;70251;60.008;30.404;2023-09-18T05:12:13;101608.09;;;11.43;67.32
80837;BME280;70251;60.008;30.404;2023-09-18T05:14:41;101607.09;;;11.44;67.41
80837;BME280;70251;60.008;30.404;2023-09-18T05:17:15;101589.13;;;11.46;67.49
80837;BME280;70251;60.008;30.404;2023-09-18T05:19:43;101593.97;;;11.52;67.29
80837;BME280;70251;60.008;30.404;2023-09-18T05:22:09;101606.13;;;11.56;67.06
80837;BME280;70251;60.008;30.404;2023-09-18T05:24:37;101603.47;;;11.56;67.21
80837;BME280;70251;60.008;30.404;2023-09-18T05:27:02;101603.00;;;11.62;67.02
80837;BME280;70251;60.008;30.404;2023-09-18T05:29:29;101608.78;;;11.69;67.29
80837;BME280;70251;60.008;30.404;2023-09-18T05:31:58;101609.59;;;11.69;67.18
80837;BME280;70251;60.008;30.404;2023-09-18T05:34:23;101612.03;;;11.73;66.91
80837;BME280;70251;60.008;30.404;2023-09-18T05:36:49;101609.84;;;11.78;66.99
80837;BME280;70251;60.008;30.404;2023-09-18T05:39:15;101609.38;;;11.84;67.07
80837;BME280;70251;60.008;30.404;2023-09-18T05:41:41;101622.13;;;11.91;66.99
80837;BME280;70251;60.008;30.404;2023-09-18T05:44:07;101616.44;;;11.96;66.66
80837;BME280;70251;60.008;30.404;2023-09-18T05:46:36;101616.19;;;11.99;66.58
80837;BME280;70251;60.008;30.404;2023-09-18T05:49:02;101622.00;;;12.04;66.43
80837;BME280;70251;60.008;30.404;2023-09-18T05:51:30;101625.41;;;12.06;66.18
80837;BME280;70251;60.008;30.404;2023-09-18T05:53:55;101607.41;;;12.08;66.06
80837;BME280;70251;60.008;30.404;2023-09-18T05:56:21;101612.91;;;12.17;65.98
80837;BME280;70251;60.008;30.404;2023-09-18T05:58:46;101619.84;;;12.20;66.50
80837;BME280;70251;60.008;30.404;2023-09-18T06:01:12;101615.31;;;12.20;66.15
80837;BME280;70251;60.008;30.404;2023-09-18T06:03:38;101612.53;;;12.22;65.85
80837;BME280;70251;60.008;30.404;2023-09-18T06:06:04;101623.19;;;12.33;65.74
80837;BME280;70251;60.008;30.404;2023-09-18T06:08:30;101617.25;;;12.40;65.83
80837;BME280;70251;60.008;30.404;2023-09-18T06:10:57;101624.63;;;12.48;65.41
80837;BME280;70251;60.008;30.404;2023-09-18T06:13:24;101626.94;;;12.53;65.53
80837;BME280;70251;60.008;30.404;2023-09-18T06:15:51;101616.97;;;12.55;65.45
80837;BME280;70251;60.008;30.404;2023-09-18T06:18:18;101629.38;;;12.67;65.12
80837;BME280;70251;60.008;30.404;2023-09-18T06:20:47;101631.91;;;12.68;65.16
80837;BME280;70251;60.008;30.404;2023-09-18T06:23:13;101632.78;;;12.69;65.30
80837;BME280;70251;60.008;30.404;2023-09-18T06:25:39;101638.13;;;12.69;65.20
80837;BME280;70251;60.008;30.404;2023-09-18T06:28:05;101637.75;;;12.73;65.09
80837;BME280;70251;60.008;30.404;2023-09-18T06:30:31;101643.09;;;12.73;64.97
80837;BME280;70251;60.008;30.404;2023-09-18T06:32:59;101641.38;;;12.83;64.94
80837;BME280;70251;60.008;30.404;2023-09-18T06:35:24;101638.41;;;12.86;64.50
80837;BME280;70251;60.008;30.404;2023-09-18T06:37:50;101648.66;;;12.92;64.65
80837;BME280;70251;60.008;30.404;2023-09-18T06:40:16;101653.13;;;13.03;64.60
80837;BME280;70251;60.008;30.404;2023-09-18T06:42:41;101650.69;;;13.11;64.28
80837;BME280;70251;60.008;30.404;2023-09-18T06:45:08;101652.59;;;13.20;63.83
80837;BME280;70251;60.008;30.404;2023-09-18T06:47:34;101655.63;;;13.27;63.80
80837;BME280;70251;60.008;30.404;2023-09-18T06:49:59;101652.78;;;13.28;63.73
80837;BME280;70251;60.008;30.404;2023-09-18T06:52:30;101649.00;;;13.31;63.93
80837;BME280;70251;60.008;30.404;2023-09-18T06:54:55;101651.41;;;13.34;63.68
80837;BME280;70251;60.008;30.404;2023-09-18T06:57:23;101645.81;;;13.37;63.50
80837;BME280;70251;60.008;30.404;2023-09-18T06:59:49;101650.66;;;13.43;63.54
80837;BME280;70251;60.008;30.404;2023-09-18T07:02:15;101650.97;;;13.49;63.16
80837;BME280;70251;60.008;30.404;2023-09-18T07:04:41;101653.00;;;13.57;63.30
80837;BME280;70251;60.008;30.404;2023-09-18T07:07:14;101649.38;;;13.67;63.16
80837;BME280;70251;60.008;30.404;2023-09-18T07:09:42;101660.34;;;13.75;63.10
80837;BME280;70251;60.008;30.404;2023-09-18T07:12:08;101649.19;;;13.80;62.88
80837;BME280;70251;60.008;30.404;2023-09-18T07:14:37;101656.72;;;13.86;62.88
80837;BME280;70251;60.008;30.404;2023-09-18T07:17:04;101656.84;;;13.84;62.79
80837;BME280;70251;60.008;30.404;2023-09-18T07:19:30;101652.06;;;13.88;62.70
80837;BME280;70251;60.008;30.404;2023-09-18T07:21:55;101646.31;;;13.92;62.45
80837;BME280;70251;60.008;30.404;2023-09-18T07:24:21;101649.19;;;14.00;62.54
80837;BME280;70251;60.008;30.404;2023-09-18T07:26:47;101658.25;;;14.09;62.34
80837;BME280;70251;60.008;30.404;2023-09-18T07:29:16;101656.19;;;14.22;62.07
80837;BME280;70251;60.008;30.404;2023-09-18T07:31:43;101666.41;;;14.28;61.63
80837;BME280;70251;60.008;30.404;2023-09-18T07:34:09;101662.94;;;14.37;61.72
80837;BME280;70251;60.008;30.404;2023-09-18T07:36:35;101674.38;;;14.39;61.27
80837;BME280;70251;60.008;30.404;2023-09-18T07:39:01;101658.59;;;14.46;61.32
80837;BME280;70251;60.008;30.404;2023-09-18T07:41:26;101668.78;;;14.61;61.09
80837;BME280;70251;60.008;30.404;2023-09-18T07:43:52;101662.59;;;14.70;60.77
80837;BME280;70251;60.008;30.404;2023-09-18T07:46:24;101671.25;;;14.93;60.31
80837;BME280;70251;60.008;30.404;2023-09-18T07:48:49;101660.81;;;15.09;60.58
80837;BME280;70251;60.008;30.404;2023-09-18T07:51:15;101660.09;;;15.36;60.33
80837;BME280;70251;60.008;30.404;2023-09-18T07:53:44;101651.19;;;15.54;59.84
80837;BME280;70251;60.008;30.404;2023-09-18T07:56:10;101645.94;;;15.72;59.61
80837;BME280;70251;60.008;30.404;2023-09-18T07:58:37;101645.88;;;15.91;59.28
80837;BME280;70251;60.008;30.404;2023-09-18T08:01:05;101658.41;;;16.19;58.91
80837;BME280;70251;60.008;30.404;2023-09-18T08:03:32;101650.50;;;16.45;58.66
80837;BME280;70251;60.008;30.404;2023-09-18T08:05:58;101655.75;;;16.74;58.27
80837;BME280;70251;60.008;30.404;2023-09-18T08:08:23;101659.25;;;17.01;57.74
80837;BME280;70251;60.008;30.404;2023-09-18T08:10:51;101651.50;;;17.16;56.79
80837;BME280;70251;60.008;30.404;2023-09-18T08:13:17;101653.50;;;17.14;55.66
80837;BME280;70251;60.008;30.404;2023-09-18T08:15:45;101653.97;;;16.82;55.44
80837;BME280;70251;60.008;30.404;2023-09-18T08:18:11;101648.50;;;16.57;55.81
80837;BME280;70251;60.008;30.404;2023-09-18T08:20:42;101648.25;;;16.50;55.69
80837;BME280;70251;60.008;30.404;2023-09-18T08:23:09;101652.66;;;16.42;55.75
80837;BME280;70251;60.008;30.404;2023-09-18T08:25:35;101662.47;;;16.33;55.61
80837;BME280;70251;60.008;30.404;2023-09-18T08:28:01;101640.69;;;16.17;55.26
80837;BME280;70251;60.008;30.404;2023-09-18T08:30:26;101658.84;;;16.15;55.16
80837;BME280;70251;60.008;30.404;2023-09-18T08:32:52;101655.47;;;16.13;55.24
80837;BME280;70251;60.008;30.404;2023-09-18T08:35:17;101645.81;;;16.10;55.31
80837;BME280;70251;60.008;30.404;2023-09-18T08:37:43;101658.13;;;16.22;55.58
80837;BME280;70251;60.008;30.404;2023-09-18T08:40:13;101652.84;;;16.30;54.74
80837;BME280;70251;60.008;30.404;2023-09-18T08:42:42;101651.69;;;16.33;55.02
80837;BME280;70251;60.008;30.404;2023-09-18T08:45:10;101651.00;;;16.31;54.73
80837;BME280;70251;60.008;30.404;2023-09-18T08:47:41;101653.13;;;16.27;54.66
80837;BME280;70251;60.008;30.404;2023-09-18T08:50:11;101649.72;;;16.25;54.32
80837;BME280;70251;60.008;30.404;2023-09-18T08:52:38;101656.00;;;16.16;54.42
80837;BME280;70251;60.008;30.404;2023-09-18T08:55:06;101659.16;;;16.12;54.18
80837;BME280;70251;60.008;30.404;2023-09-18T08:57:32;101663.44;;;16.05;54.37
80837;BME280;70251;60.008;30.404;2023-09-18T08:59:58;101657.50;;;15.92;54.12
80837;BME280;70251;60.008;30.404;2023-09-18T09:02:30;101669.72;;;15.86;54.27
80837;BME280;70251;60.008;30.404;2023-09-18T09:04:55;101664.88;;;15.80;54.23
80837;BME280;70251;60.008;30.404;2023-09-18T09:07:21;101672.69;;;15.83;54.01
80837;BME280;70251;60.008;30.404;2023-09-18T09:09:46;101673.44;;;15.76;54.39
80837;BME280;70251;60.008;30.404;2023-09-18T09:12:12;101673.69;;;15.73;54.18
80837;BME280;70251;60.008;30.404;2023-09-18T09:14:38;101677.09;;;15.75;54.50
80837;BME280;70251;60.008;30.404;2023-09-18T09:17:04;101675.81;;;15.79;54.39
80837;BME280;70251;60.008;30.404;2023-09-18T09:19:33;101676.66;;;15.79;54.36
80837;BME280;70251;60.008;30.404;2023-09-18T09:22:02;101675.38;;;15.83;54.38
80837;BME280;70251;60.008;30.404;2023-09-18T09:27:06;101676.66;;;15.79;54.38
80837;BME280;70251;60.008;30.404;2023-09-18T09:29:34;101686.72;;;15.77;54.40
80837;BME280;70251;60.008;30.404;2023-09-18T09:32:20;101689.69;;;15.84;54.62
80837;BME280;70251;60.008;30.404;2023-09-18T09:34:46;101683.28;;;15.85;54.55
80837;BME280;70251;60.008;30.404;2023-09-18T09:37:12;101681.31;;;15.96;54.55
80837;BME280;70251;60.008;30.404;2023-09-18T09:39:52;101683.66;;;16.09;54.59
80837;BME280;70251;60.008;30.404;2023-09-18T09:42:19;101688.94;;;16.01;54.39
80837;BME280;70251;60.008;30.404;2023-09-18T09:45:05;101695.03;;;16.03;54.12
80837;BME280;70251;60.008;30.404;2023-09-18T09:47:36;101682.97;;;15.97;54.38
80837;BME280;70251;60.008;30.404;2023-09-18T09:50:15;101684.41;;;16.01;54.30
80837;BME280;70251;60.008;30.404;2023-09-18T09:52:46;101673.66;;;16.01;54.09
80837;BME280;70251;60.008;30.404;2023-09-18T09:57:52;101673.28;;;16.23;54.80
80837;BME280;70251;60.008;30.404;2023-09-18T10:00:18;101663.19;;;16.25;54.63
80837;BME280;70251;60.008;30.404;2023-09-18T10:02:57;101674.66;;;16.27;55.21
80837;BME280;70251;60.008;30.404;2023-09-18T10:05:27;101679.78;;;16.21;55.48
80837;BME280;70251;60.008;30.404;2023-09-18T10:07:57;101680.13;;;16.08;55.39
80837;BME280;70251;60.008;30.404;2023-09-18T10:10:29;101679.91;;;15.92;55.75
80837;BME280;70251;60.008;30.404;2023-09-18T10:12:57;101683.88;;;15.88;55.99
80837;BME280;70251;60.008;30.404;2023-09-18T10:15:27;101669.13;;;15.83;55.97
80837;BME280;70251;60.008;30.404;2023-09-18T10:17:56;101674.13;;;15.78;55.90
80837;BME280;70251;60.008;30.404;2023-09-18T10:20:23;101676.13;;;15.76;56.52
80837;BME280;70251;60.008;30.404;2023-09-18T10:22:56;101681.06;;;15.71;56.46
80837;BME280;70251;60.008;30.404;2023-09-18T10:25:24;101679.06;;;15.63;56.62
80837;BME280;70251;60.008;30.404;2023-09-18T10:27:52;101693.00;;;15.59;57.01
80837;BME280;70251;60.008;30.404;2023-09-18T10:30:24;101698.63;;;15.56;57.04
80837;BME280;70251;60.008;30.404;2023-09-18T10:32:52;101686.72;;;15.39;56.96
80837;BME280;70251;60.008;30.404;2023-09-18T10:35:19;101697.91;;;15.44;57.15
80837;BME280;70251;60.008;30.404;2023-09-18T10:37:46;101696.34;;;15.41;56.98
80837;BME280;70251;60.008;30.404;2023-09-18T10:40:13;101697.63;;;15.37;56.86
80837;BME280;70251;60.008;30.404;2023-09-18T10:42:40;101695.63;;;15.30;57.09
80837;BME280;70251;60.008;30.404;2023-09-18T10:45:08;101695.78;;;15.38;57.29
80837;BME280;70251;60.008;30.404;2023-09-18T10:47:40;101695.91;;;15.36;56.99
80837;BME280;70251;60.008;30.404;2023-09-18T10:50:09;101678.38;;;15.32;57.06
80837;BME280;70251;60.008;30.404;2023-09-18T10:52:36;101696.63;;;15.38;56.87
80837;BME280;70251;60.008;30.404;2023-09-18T10:55:04;101687.59;;;15.39;56.85
80837;BME280;70251;60.008;30.404;2023-09-18T10:57:36;101683.66;;;15.43;56.62
80837;BME280;70251;60.008;30.404;2023-09-18T11:00:04;101700.06;;;15.50;56.70
80837;BME280;70251;60.008;30.404;2023-09-18T11:02:42;101693.00;;;15.59;56.67
80837;BME280;70251;60.008;30.404;2023-09-18T11:05:08;101689.28;;;15.60;56.35
80837;BME280;70251;60.008;30.404;2023-09-18T11:07:33;101695.97;;;15.65;56.24
80837;BME280;70251;60.008;30.404;2023-09-18T11:09:59;101692.69;;;15.71;56.06
80837;BME280;70251;60.008;30.404;2023-09-18T11:12:45;101696.47;;;15.78;56.11
80837;BME280;70251;60.008;30.404;2023-09-18T11:15:25;101698.63;;;15.84;55.56
80837;BME280;70251;60.008;30.404;2023-09-18T11:17:59;101695.34;;;15.90;55.19
80837;BME280;70251;60.008;30.404;2023-09-18T11:20:26;101700.72;;;15.90;55.49
80837;BME280;70251;60.008;30.404;2023-09-18T11:22:58;101690.66;;;15.92;55.25
80837;BME280;70251;60.008;30.404;2023-09-18T11:28:15;101691.06;;;15.97;54.98
80837;BME280;70251;60.008;30.404;2023-09-18T11:30:50;101699.28;;;15.96;54.77
80837;BME280;70251;60.008;30.404;2023-09-18T11:33:50;101691.75;;;15.99;54.48
80837;BME280;70251;60.008;30.404;2023-09-18T11:36:29;101692.59;;;16.09;54.67
80837;BME280;70251;60.008;30.404;2023-09-18T11:38:59;101703.97;;;16.03;54.22
80837;BME280;70251;60.008;30.404;2023-09-18T11:41:35;101708.34;;;16.04;54.41
80837;BME280;70251;60.008;30.404;2023-09-18T11:46:54;101686.31;;;16.18;54.47
80837;BME280;70251;60.008;30.404;2023-09-18T11:49:22;101681.75;;;16.28;54.11
80837;BME280;70251;60.008;30.404;2023-09-18T11:51:50;101686.00;;;16.31;54.17
80837;BME280;70251;60.008;30.404;2023-09-18T11:54:16;101686.25;;;16.38;53.76
80837;BME280;70251;60.008;30.404;2023-09-18T11:56:42;101675.47;;;16.38;53.98
80837;BME280;70251;60.008;30.404;2023-09-18T11:59:09;101683.38;;;16.49;53.72
80837;BME280;70251;60.008;30.404;2023-09-18T12:01:36;101675.19;;;16.50;53.93
80837;BME280;70251;60.008;30.404;2023-09-18T12:04:03;101677.97;;;16.58;53.58
80837;BME280;70251;60.008;30.404;2023-09-18T12:06:36;101675.28;;;16.58;53.31
80837;BME280;70251;60.008;30.404;2023-09-18T12:09:06;101685.50;;;16.55;52.88
80837;BME280;70251;60.008;30.404;2023-09-18T12:11:36;101678.84;;;16.49;53.26
80837;BME280;70251;60.008;30.404;2023-09-18T12:14:04;101677.59;;;16.44;53.12
80837;BME280;70251;60.008;30.404;2023-09-18T12:16:31;101667.66;;;16.44;53.18
80837;BME280;70251;60.008;30.404;2023-09-18T12:19:03;101663.56;;;16.50;53.15
80837;BME280;70251;60.008;30.404;2023-09-18T12:21:31;101657.81;;;16.62;53.07
80837;BME280;70251;60.008;30.404;2023-09-18T12:23:57;101658.66;;;16.63;52.91
80837;BME280;70251;60.008;30.404;2023-09-18T12:26:22;101665.38;;;16.59;52.82
80837;BME280;70251;60.008;30.404;2023-09-18T12:28:51;101658.41;;;16.56;52.84
80837;BME280;70251;60.008;30.404;2023-09-18T12:31:17;101656.72;;;16.55;53.01
80837;BME280;70251;60.008;30.404;2023-09-18T12:33:43;101662.25;;;16.54;52.51
80837;BME280;70251;60.008;30.404;2023-09-18T12:36:10;101672.91;;;16.46;52.72
80837;BME280;70251;60.008;30.404;2023-09-18T12:38:37;101653.03;;;16.47;52.81
80837;BME280;70251;60.008;30.404;2023-09-18T12:41:04;101642.31;;;16.37;52.71
80837;BME280;70251;60.008;30.404;2023-09-18T12:43:38;101654.66;;;16.40;52.71
80837;BME280;70251;60.008;30.404;2023-09-18T12:46:06;101666.94;;;16.42;52.58
80837;BME280;70251;60.008;30.404;2023-09-18T12:48:36;101653.19;;;16.45;52.65
80837;BME280;70251;60.008;30.404;2023-09-18T12:51:06;101649.34;;;16.48;52.74
80837;BME280;70251;60.008;30.404;2023-09-18T12:53:32;101654.47;;;16.51;52.63